Time;durP1;ratioP1;P1;durP2;ratioP2;P2;SDS_P1;SDS_P2;PMS_P1;PMS_P2;Temp;Humidity;BMP_temperature;BMP_pressure;BME280_temperature;BME280_humidity;BME280_pressure;Samples;Min_cycle;Max_cycle;Signal;HPM_P1;HPM_P2
2021/10/24 00:02:03;;;;;;;64.95;32.58;;;;;;;2.03;73.30;101240.37;1715331;83;21200;-58
2021/10/24 00:05:13;;;;;;;71.72;32.78;;;;;;;1.96;73.08;101237.20;1714821;80;21236;-59
2021/10/24 00:08:18;;;;;;;146.30;55.23;;;;;;;1.91;73.33;101231.70;1715390;83;21338;-59
2021/10/24 00:11:23;;;;;;;187.75;69.32;;;;;;;1.92;73.63;101232.11;1678259;85;21264;-59
2021/10/24 00:14:28;;;;;;;156.93;62.05;;;;;;;1.96;73.75;101234.98;1715298;83;21350;-60
2021/10/24 00:17:36;;;;;;;130.63;55.28;;;;;;;1.93;73.53;101222.56;1715417;83;21334;-59
2021/10/24 00:20:41;;;;;;;122.28;52.17;;;;;;;1.88;73.31;101228.74;1715223;83;21165;-60
2021/10/24 00:23:47;;;;;;;137.82;56.98;;;;;;;1.82;73.38;101239.06;1715236;83;21223;-60
2021/10/24 00:26:53;;;;;;;145.55;56.05;;;;;;;1.78;73.54;101246.48;1715270;83;21334;-59
2021/10/24 00:29:58;;;;;;;154.38;56.05;;;;;;;1.74;73.35;101237.34;1715352;83;21354;-59
2021/10/24 00:33:05;;;;;;;136.97;50.88;;;;;;;1.70;73.43;101238.52;1715342;83;21224;-59
2021/10/24 00:36:10;;;;;;;114.12;43.73;;;;;;;1.67;73.51;101235.52;1715230;83;21228;-58
2021/10/24 00:39:16;;;;;;;87.60;37.55;;;;;;;1.64;73.58;101230.80;1715288;83;21353;-59
2021/10/24 00:42:21;;;;;;;68.45;32.80;;;;;;;1.64;73.74;101228.10;1715222;83;21342;-58
2021/10/24 00:45:29;;;;;;;59.08;29.40;;;;;;;1.65;73.88;101234.74;1715260;83;21196;-59
2021/10/24 00:48:36;;;;;;;48.70;24.65;;;;;;;1.69;73.91;101232.72;1715320;83;21332;-63
2021/10/24 00:51:42;;;;;;;59.58;24.98;;;;;;;1.69;73.92;101232.72;1715314;83;21188;-59
2021/10/24 00:54:48;;;;;;;55.70;27.60;;;;;;;1.71;73.93;101240.25;1715167;83;21208;-60
2021/10/24 00:57:53;;;;;;;68.97;30.80;;;;;;;1.70;73.77;101237.17;1715327;83;21255;-59
2021/10/24 01:01:01;;;;;;;76.70;29.98;;;;;;;1.66;73.54;101239.67;1678426;85;21212;-59
2021/10/24 01:04:07;;;;;;;66.12;26.33;;;;;;;1.60;73.61;101241.42;1712655;83;21382;-59
2021/10/24 01:07:13;;;;;;;51.77;23.75;;;;;;;1.60;73.74;101236.90;1747648;79;21228;-59
2021/10/24 01:10:20;;;;;;;58.85;24.70;;;;;;;1.60;73.71;101231.97;1749093;82;21176;-60
2021/10/24 01:13:25;;;;;;;60.98;24.92;;;;;;;1.57;73.56;101235.72;1749319;80;21240;-59
2021/10/24 01:16:33;;;;;;;58.10;22.82;;;;;;;1.48;73.34;101245.28;1749398;82;21318;-59
2021/10/24 01:19:39;;;;;;;47.00;20.65;;;;;;;1.45;73.49;101248.18;1749393;80;21216;-59
2021/10/24 01:22:46;;;;;;;47.70;21.70;;;;;;;1.40;73.57;101250.30;1749471;80;21376;-59
2021/10/24 01:25:52;;;;;;;38.95;18.62;;;;;;;1.40;73.84;101238.16;1748798;82;21247;-60
2021/10/24 01:28:57;;;;;;;51.45;23.00;;;;;;;1.40;73.87;101254.34;1748943;80;21234;-60
2021/10/24 01:32:04;;;;;;;55.33;22.87;;;;;;;1.42;74.03;101259.16;1748912;82;21192;-60
2021/10/24 01:35:08;;;;;;;54.95;25.00;;;;;;;1.43;73.96;101263.59;1744553;82;21984;-60
2021/10/24 01:38:13;;;;;;;48.20;23.25;;;;;;;1.41;73.70;101266.86;1719130;81;21212;-60
2021/10/24 01:41:19;;;;;;;50.98;22.75;;;;;;;1.41;73.96;101261.46;1719371;83;21925;-59
2021/10/24 01:44:25;;;;;;;55.12;25.68;;;;;;;1.44;74.11;101261.27;1707846;82;21400;-59
2021/10/24 01:47:31;;;;;;;66.82;27.13;;;;;;;1.52;74.13;101264.34;1719604;83;21426;-60
2021/10/24 01:50:37;;;;;;;65.05;28.98;;;;;;;1.63;74.33;101265.50;1719550;83;21322;-60
2021/10/24 01:53:45;;;;;;;73.35;32.45;;;;;;;1.75;74.37;101268.75;1719365;83;21243;-60
2021/10/24 01:56:51;;;;;;;56.48;28.42;;;;;;;1.90;74.28;101269.13;1719514;83;21207;-59
2021/10/24 01:59:57;;;;;;;46.80;25.43;;;;;;;2.04;74.10;101263.69;1700287;83;21590;-59
2021/10/24 02:03:11;;;;;;;41.58;22.50;;;;;;;2.18;73.88;101269.93;1719368;83;21259;-60
2021/10/24 02:06:24;;;;;;;32.30;18.32;;;;;;;2.34;73.60;101265.72;1717180;81;21207;-61
2021/10/24 02:09:33;;;;;;;35.83;16.90;;;;;;;2.44;73.31;101269.05;1712208;84;21188;-60
2021/10/24 02:12:39;;;;;;;45.10;20.08;;;;;;;2.56;73.00;101261.48;1712243;84;21334;-60
2021/10/24 02:15:48;;;;;;;55.88;24.57;;;;;;;2.67;72.76;101264.32;1712223;84;21183;-61
2021/10/24 02:18:53;;;;;;;38.83;18.27;;;;;;;2.77;72.44;101265.91;1712268;84;21236;-60
2021/10/24 02:21:59;;;;;;;31.62;16.40;;;;;;;2.86;72.16;101270.68;1712234;84;21267;-59
2021/10/24 02:25:04;;;;;;;29.02;14.78;;;;;;;2.93;71.91;101267.44;1712197;84;21235;-60
2021/10/24 02:28:13;;;;;;;24.65;13.62;;;;;;;3.01;71.63;101269.64;1712203;84;21279;-59
2021/10/24 02:31:18;;;;;;;31.15;14.03;;;;;;;3.08;71.46;101269.57;1712236;84;21385;-59
2021/10/24 02:34:26;;;;;;;29.98;14.87;;;;;;;3.13;71.34;101281.42;1704513;84;21342;-59
2021/10/24 02:37:36;;;;;;;34.00;15.83;;;;;;;3.14;71.35;101275.90;1710880;83;21354;-59
2021/10/24 02:40:44;;;;;;;36.85;16.37;;;;;;;3.20;71.35;101283.61;1712187;84;21374;-59
2021/10/24 02:43:50;;;;;;;37.35;16.32;;;;;;;3.27;71.18;101280.84;1712190;84;21199;-59
2021/10/24 02:46:59;;;;;;;31.33;14.95;;;;;;;3.34;71.44;101271.80;1712225;84;21346;-61
2021/10/24 02:50:07;;;;;;;36.03;19.07;;;;;;;3.40;71.51;101279.01;1712261;84;21338;-61
2021/10/24 02:53:13;;;;;;;31.85;17.27;;;;;;;3.47;71.49;101281.67;1712318;84;21768;-60
2021/10/24 02:56:20;;;;;;;30.37;15.45;;;;;;;3.55;71.34;101277.90;1712209;84;21330;-59
2021/10/24 02:59:27;;;;;;;27.07;14.78;;;;;;;3.63;71.14;101275.52;1712302;84;21212;-59
2021/10/24 03:02:33;;;;;;;27.13;14.23;;;;;;;3.71;70.92;101284.46;1712151;84;21168;-60
2021/10/24 03:05:39;;;;;;;28.30;13.38;;;;;;;3.77;70.73;101279.47;1712157;84;21176;-59
2021/10/24 03:08:45;;;;;;;23.40;12.65;;;;;;;3.82;70.50;101278.63;1713656;80;21172;-59
2021/10/24 03:11:50;;;;;;;22.87;12.58;;;;;;;3.87;70.28;101281.88;1712170;84;21196;-59
2021/10/24 03:14:57;;;;;;;23.57;11.95;;;;;;;3.92;70.15;101288.30;1712185;84;21203;-59
2021/10/24 03:18:03;;;;;;;26.90;12.15;;;;;;;3.96;70.01;101290.70;1712176;84;21326;-60
2021/10/24 03:21:08;;;;;;;19.37;11.90;;;;;;;4.00;69.88;101297.61;1712287;84;21338;-61
2021/10/24 03:24:18;;;;;;;24.18;11.50;;;;;;;4.03;69.73;101296.03;1712186;84;21421;-59
2021/10/24 03:27:26;;;;;;;19.92;10.72;;;;;;;4.05;69.63;101290.50;1711755;84;21772;-60
2021/10/24 03:30:31;;;;;;;25.37;11.80;;;;;;;4.07;69.59;101289.91;1711694;84;21712;-60
2021/10/24 03:33:36;;;;;;;24.20;11.57;;;;;;;4.08;69.53;101286.20;1711734;84;21895;-60
2021/10/24 03:36:42;;;;;;;26.25;11.65;;;;;;;4.11;69.51;101285.98;1711658;84;21397;-61
2021/10/24 03:39:47;;;;;;;20.02;11.45;;;;;;;4.13;69.45;101288.09;1693552;84;21802;-60
2021/10/24 03:42:53;;;;;;;23.70;11.55;;;;;;;4.17;69.37;101288.27;1711677;84;21322;-60
2021/10/24 03:45:58;;;;;;;22.58;11.35;;;;;;;4.18;69.30;101289.98;1711924;84;21828;-60
2021/10/24 03:49:03;;;;;;;20.45;10.75;;;;;;;4.20;69.29;101291.59;1711721;84;21220;-60
2021/10/24 03:52:08;;;;;;;25.65;11.20;;;;;;;4.20;69.28;101295.65;1711859;84;21330;-58
2021/10/24 03:55:15;;;;;;;19.07;10.68;;;;;;;4.23;69.37;101291.87;1711874;84;21196;-60
2021/10/24 03:58:21;;;;;;;28.75;11.03;;;;;;;4.24;69.39;101295.82;1693355;84;21941;-59
2021/10/24 04:01:26;;;;;;;21.25;11.18;;;;;;;4.27;69.39;101293.36;1712233;84;21339;-60
2021/10/24 04:04:33;;;;;;;26.57;11.15;;;;;;;4.30;69.40;101286.34;1712136;84;21243;-60
2021/10/24 04:07:40;;;;;;;38.88;19.10;;;;;;;4.32;69.42;101293.41;1712199;84;21823;-60
2021/10/24 04:10:46;;;;;;;43.52;21.00;;;;;;;4.32;69.42;101287.98;1713491;79;21243;-59
2021/10/24 04:13:54;;;;;;;42.33;22.25;;;;;;;4.34;69.38;101300.06;1658181;86;21212;-59
2021/10/24 04:17:00;;;;;;;59.15;24.00;;;;;;;4.36;69.39;101291.34;1713208;82;21831;-58
2021/10/24 04:20:07;;;;;;;47.60;20.50;;;;;;;4.37;69.36;101299.36;1743757;81;21382;-58
2021/10/24 04:23:13;;;;;;;51.35;21.02;;;;;;;4.39;69.36;101300.09;1743413;81;21358;-59
2021/10/24 04:26:22;;;;;;;46.33;19.40;;;;;;;4.42;69.29;101307.98;1743540;82;21256;-59
2021/10/24 04:29:27;;;;;;;56.60;21.93;;;;;;;4.42;69.29;101308.49;1743819;81;21394;-59
2021/10/24 04:32:32;;;;;;;68.47;27.62;;;;;;;4.43;69.31;101311.09;1721784;82;21199;-58
2021/10/24 04:35:38;;;;;;;72.47;31.70;;;;;;;4.46;69.34;101304.56;1744013;82;21353;-57
2021/10/24 04:38:44;;;;;;;91.37;34.33;;;;;;;4.50;69.28;101309.64;1743975;81;21342;-58
2021/10/24 04:41:50;;;;;;;52.67;22.73;;;;;;;4.52;69.31;101319.01;1744006;82;21323;-58
2021/10/24 04:44:56;;;;;;;31.80;15.50;;;;;;;4.53;69.29;101323.47;1743979;81;21224;-58
2021/10/24 04:48:02;;;;;;;28.23;13.53;;;;;;;4.54;69.40;101330.12;1744126;81;21335;-59
2021/10/24 04:51:10;;;;;;;22.87;11.75;;;;;;;4.55;69.54;101337.27;1744019;82;21334;-60
2021/10/24 04:54:17;;;;;;;21.30;11.93;;;;;;;4.57;69.71;101339.88;1743976;81;21381;-58
2021/10/24 04:57:23;;;;;;;32.13;15.55;;;;;;;4.59;69.76;101332.02;1744038;82;21192;-58
2021/10/24 05:00:29;;;;;;;31.55;17.32;;;;;;;4.63;69.86;101341.64;1744018;82;21370;-60
2021/10/24 05:03:38;;;;;;;39.27;18.80;;;;;;;4.68;69.95;101340.44;1700601;84;21906;-58
2021/10/24 05:06:46;;;;;;;33.90;15.98;;;;;;;4.73;70.13;101341.81;1656069;86;21316;-59
2021/10/24 05:09:52;;;;;;;27.73;15.72;;;;;;;4.79;70.29;101349.48;1709754;83;21756;-59
2021/10/24 05:12:58;;;;;;;30.65;15.45;;;;;;;4.85;70.30;101353.11;1710460;83;21200;-59
2021/10/24 05:16:03;;;;;;;27.05;13.72;;;;;;;4.94;70.30;101358.31;1651554;87;21820;-58
2021/10/24 05:19:11;;;;;;;24.63;12.75;;;;;;;5.02;70.27;101358.59;1648962;87;21233;-58
2021/10/24 05:22:17;;;;;;;19.32;12.78;;;;;;;5.11;70.27;101362.83;1660618;86;21245;-59
2021/10/24 05:25:24;;;;;;;28.60;14.20;;;;;;;5.20;70.16;101368.06;1648864;87;21233;-58
2021/10/24 05:28:30;;;;;;;29.95;16.57;;;;;;;5.30;70.05;101363.63;1650136;87;21220;-59
2021/10/24 05:31:35;;;;;;;35.08;18.48;;;;;;;5.39;69.87;101362.94;1661565;86;21212;-60
2021/10/24 05:34:42;;;;;;;41.00;19.15;;;;;;;5.48;69.71;101370.36;1662469;85;21280;-60
2021/10/24 05:37:50;;;;;;;30.90;16.27;;;;;;;5.56;69.61;101374.70;1662227;85;21402;-59
2021/10/24 05:40:59;;;;;;;28.92;13.95;;;;;;;5.65;69.49;101387.08;1662663;85;21714;-59
2021/10/24 05:44:05;;;;;;;34.20;15.78;;;;;;;5.73;69.32;101391.90;1662246;85;21438;-59
2021/10/24 05:47:14;;;;;;;38.40;18.07;;;;;;;5.82;69.22;101395.27;1662368;85;21209;-58
2021/10/24 05:50:20;;;;;;;33.13;15.70;;;;;;;5.92;69.14;101396.29;1647063;86;21592;-58
2021/10/24 05:53:26;;;;;;;52.38;28.38;;;;;;;5.99;68.93;101395.67;1635353;86;21249;-58
2021/10/24 05:56:34;;;;;;;32.80;18.45;;;;;;;6.07;68.84;101395.09;1660674;85;21201;-58
2021/10/24 05:59:42;;;;;;;23.05;13.20;;;;;;;6.15;68.83;101398.54;1703572;84;21720;-59
2021/10/24 06:02:50;;;;;;;20.90;12.55;;;;;;;6.23;68.75;101403.75;1703494;84;21402;-60
2021/10/24 06:06:13;;;;;;;24.72;12.07;;;;;;;6.27;68.59;101402.50;1686218;85;21389;-60
2021/10/24 06:09:29;;;;;;;23.77;12.10;;;;;;;6.35;68.54;101401.38;1686019;84;21438;-60
2021/10/24 06:15:42;;;;;;;25.52;13.05;;;;;;;6.42;68.60;101401.27;1675482;85;21205;-58
2021/10/24 06:18:47;;;;;;;22.22;12.05;;;;;;;6.51;68.82;101403.72;1675431;84;21663;-58
2021/10/24 06:21:53;;;;;;;25.97;12.60;;;;;;;6.61;68.84;101406.06;1675457;85;21231;-58
2021/10/24 06:24:58;;;;;;;24.20;13.80;;;;;;;6.70;68.85;101414.34;1675393;84;21746;-58
2021/10/24 06:28:03;;;;;;;20.30;13.28;;;;;;;6.79;68.78;101416.29;1651340;85;21731;-58
2021/10/24 06:31:12;;;;;;;24.10;13.22;;;;;;;6.88;68.70;101433.21;1652355;87;21236;-59
2021/10/24 06:34:18;;;;;;;30.52;15.38;;;;;;;7.00;68.66;101419.97;1620713;86;21276;-59
2021/10/24 06:37:30;;;;;;;34.35;16.82;;;;;;;7.12;68.36;101421.65;1650892;87;21284;-59
2021/10/24 06:40:36;;;;;;;27.55;13.60;;;;;;;7.19;67.90;101419.28;1652642;87;21200;-59
2021/10/24 06:43:43;;;;;;;23.07;11.83;;;;;;;7.27;68.63;101421.73;1652818;85;21769;-59
2021/10/24 06:46:55;;;;;;;20.23;11.48;;;;;;;7.34;68.86;101423.45;1641928;87;21240;-59
2021/10/24 06:50:14;;;;;;;21.17;11.03;;;;;;;7.39;68.12;101424.77;1652691;87;21276;-58
2021/10/24 06:53:22;;;;;;;25.72;12.28;;;;;;;7.48;67.19;101418.53;1651182;85;21292;-59
2021/10/24 06:56:35;;;;;;;23.32;10.75;;;;;;;7.56;66.69;101426.91;1651139;87;21683;-59
2021/10/24 06:59:58;;;;;;;19.52;11.18;;;;;;;7.65;66.27;101430.72;1641407;86;21251;-59
2021/10/24 07:03:21;;;;;;;21.07;10.38;;;;;;;7.75;66.03;101426.22;1652786;85;21402;-59
2021/10/24 07:06:34;;;;;;;16.95;10.38;;;;;;;7.88;65.68;101425.50;1629871;86;21224;-59
2021/10/24 07:09:49;;;;;;;21.82;10.20;;;;;;;7.98;65.31;101418.26;1653168;85;21368;-60
2021/10/24 07:12:58;;;;;;;20.50;10.70;;;;;;;8.06;65.01;101418.94;1657075;81;21564;-60
2021/10/24 07:16:08;;;;;;;17.12;9.73;;;;;;;8.13;64.72;101414.69;1650537;86;21722;-59
2021/10/24 07:19:16;;;;;;;19.30;11.15;;;;;;;8.20;64.51;101415.86;1694228;84;21363;-59
2021/10/24 07:22:24;;;;;;;17.77;10.58;;;;;;;8.24;64.31;101419.61;1628494;86;21371;-60
2021/10/24 07:25:37;;;;;;;15.75;9.40;;;;;;;8.33;64.45;101420.63;1671135;84;21188;-59
2021/10/24 07:28:45;;;;;;;17.52;10.25;;;;;;;8.46;64.06;101415.33;1688279;84;21307;-60
2021/10/24 07:31:52;;;;;;;19.73;9.43;;;;;;;8.60;63.85;101416.31;1688800;84;21216;-59
2021/10/24 07:35:15;;;;;;;17.15;9.43;;;;;;;8.77;63.64;101413.41;1666289;85;21217;-58
2021/10/24 07:38:23;;;;;;;21.45;9.60;;;;;;;8.87;62.72;101422.01;1647790;86;21361;-59
2021/10/24 07:41:30;;;;;;;17.77;9.25;;;;;;;8.89;62.45;101417.28;1646054;86;21702;-58
2021/10/24 07:44:36;;;;;;;18.92;9.33;;;;;;;8.91;62.68;101409.78;1646757;86;21197;-59
2021/10/24 07:47:43;;;;;;;17.82;10.55;;;;;;;9.00;62.70;101423.11;1643081;86;21291;-59
2021/10/24 07:50:51;;;;;;;16.95;9.33;;;;;;;9.05;62.50;101408.02;1630360;88;21327;-60
2021/10/24 07:53:57;;;;;;;19.17;9.88;;;;;;;9.15;62.05;101410.76;1630588;88;21761;-59
2021/10/24 07:57:04;;;;;;;18.40;8.60;;;;;;;9.22;61.88;101405.10;1630494;88;21398;-59
2021/10/24 08:00:14;;;;;;;15.58;8.90;;;;;;;9.31;61.67;101404.23;1623449;88;21227;-58
2021/10/24 08:03:22;;;;;;;17.90;9.35;;;;;;;9.40;61.38;101395.20;1630024;88;21442;-60
2021/10/24 08:06:29;;;;;;;15.48;9.25;;;;;;;9.46;61.33;101403.31;1629998;88;21725;-59
2021/10/24 08:09:36;;;;;;;14.45;8.58;;;;;;;9.49;61.15;101409.86;1631926;86;22033;-59
2021/10/24 08:12:44;;;;;;;19.87;10.45;;;;;;;9.47;61.13;101422.30;1708511;83;21784;-60
2021/10/24 08:15:51;;;;;;;19.92;10.32;;;;;;;9.51;61.34;101411.46;1669982;84;21742;-59
2021/10/24 08:18:57;;;;;;;29.90;15.00;;;;;;;9.62;61.26;101416.78;1682518;85;21212;-59
2021/10/24 08:22:05;;;;;;;19.55;8.85;;;;;;;9.71;61.09;101406.33;1686002;85;21288;-60
2021/10/24 08:25:11;;;;;;;16.15;7.85;;;;;;;9.80;60.86;101412.80;1652682;86;22119;-59
2021/10/24 08:28:16;;;;;;;16.55;8.40;;;;;;;9.80;60.73;101412.28;1687684;84;21212;-59
2021/10/24 08:31:28;;;;;;;17.87;9.38;;;;;;;9.79;60.72;101426.98;1667261;83;21835;-60
2021/10/24 08:34:34;;;;;;;17.48;9.70;;;;;;;9.73;60.54;101417.99;1701526;84;21247;-59
2021/10/24 08:37:40;;;;;;;20.88;10.85;;;;;;;9.67;60.66;101421.80;1718446;82;21584;-59
2021/10/24 08:40:46;;;;;;;14.45;9.05;;;;;;;9.68;60.84;101424.89;1697119;83;21247;-59
2021/10/24 08:43:53;;;;;;;16.62;8.55;;;;;;;9.70;60.77;101422.88;1709979;84;21336;-59
2021/10/24 08:46:59;;;;;;;13.80;8.28;;;;;;;9.63;60.80;101431.28;1719275;82;21751;-59
2021/10/24 08:50:04;;;;;;;16.48;8.95;;;;;;;9.60;60.72;101434.31;1713358;83;21429;-58
2021/10/24 08:53:14;;;;;;;19.50;10.32;;;;;;;9.58;60.76;101437.19;1723432;83;21208;-59
2021/10/24 08:56:29;;;;;;;14.85;7.40;;;;;;;9.55;60.95;101429.28;1710618;83;21718;-59
2021/10/24 08:59:35;;;;;;;16.80;7.80;;;;;;;9.55;60.94;101433.87;1703844;82;21231;-59
2021/10/24 09:03:10;;;;;;;20.95;9.83;;;;;;;9.53;61.04;101431.81;1710632;82;21768;-59
2021/10/24 09:06:15;;;;;;;16.45;8.33;;;;;;;9.52;61.29;101432.80;1702836;83;21252;-59
2021/10/24 09:09:23;;;;;;;14.40;8.35;;;;;;;9.53;61.05;101437.28;1709123;82;21215;-59
2021/10/24 09:12:30;;;;;;;23.73;9.13;;;;;;;9.50;61.05;101435.67;1681577;85;21294;-59
2021/10/24 09:15:36;;;;;;;17.82;8.90;;;;;;;9.54;61.03;101427.57;1683124;81;21211;-60
2021/10/24 09:18:49;;;;;;;16.32;8.35;;;;;;;9.61;60.93;101423.77;1681644;84;21556;-59
2021/10/24 09:21:54;;;;;;;15.10;8.48;;;;;;;9.68;60.90;101425.76;1708248;84;21852;-59
2021/10/24 09:25:25;;;;;;;12.10;7.20;;;;;;;9.75;60.70;101416.48;1703029;84;21227;-59
2021/10/24 09:28:32;;;;;;;11.43;6.45;;;;;;;9.81;60.29;101415.39;1685919;84;21223;-59
2021/10/24 09:31:40;;;;;;;15.55;7.30;;;;;;;9.90;59.54;101425.95;1662182;86;21212;-59
2021/10/24 09:34:47;;;;;;;10.50;6.33;;;;;;;10.01;59.02;101433.49;1681234;83;21777;-59
2021/10/24 09:38:13;;;;;;;10.00;6.25;;;;;;;10.11;58.45;101433.02;1688872;83;21841;-59
2021/10/24 09:41:38;;;;;;;12.13;6.20;;;;;;;10.23;57.92;101430.45;1689798;85;21224;-60
2021/10/24 09:44:43;;;;;;;15.72;5.53;;;;;;;10.42;57.55;101424.92;1690212;83;21243;-60
2021/10/24 09:47:53;;;;;;;16.40;5.22;;;;;;;10.54;56.47;101422.86;1663364;85;21207;-59
2021/10/24 09:51:10;;;;;;;10.88;6.08;;;;;;;10.58;55.42;101418.30;1665022;83;21236;-60
2021/10/24 09:54:32;;;;;;;7.58;4.67;;;;;;;10.77;55.19;101419.20;1689059;85;21307;-60
2021/10/24 09:57:39;;;;;;;9.73;4.97;;;;;;;10.99;54.07;101416.09;1690324;83;21236;-60
2021/10/24 10:00:45;;;;;;;8.65;5.08;;;;;;;11.02;53.19;101409.77;1690133;85;21220;-60
2021/10/24 10:03:51;;;;;;;9.25;5.12;;;;;;;10.95;52.47;101411.91;1690043;83;21246;-60
2021/10/24 10:06:57;;;;;;;9.18;5.83;;;;;;;10.80;52.38;101410.72;1690668;85;21216;-59
2021/10/24 10:10:03;;;;;;;16.20;6.92;;;;;;;10.65;52.77;101405.37;1690792;83;21224;-59
2021/10/24 10:13:08;;;;;;;15.70;6.50;;;;;;;10.55;53.33;101417.23;1689732;83;21244;-59
2021/10/24 10:16:21;;;;;;;10.05;4.37;;;;;;;10.48;53.88;101426.21;1683781;83;21801;-59
2021/10/24 10:19:34;;;;;;;9.90;3.80;;;;;;;10.37;52.58;101419.02;1644976;85;21300;-60
2021/10/24 10:22:41;;;;;;;7.60;3.47;;;;;;;10.30;52.38;101425.25;1633900;86;21556;-59
2021/10/24 10:25:49;;;;;;;9.05;4.00;;;;;;;10.30;52.62;101417.91;1646262;87;21222;-60
2021/10/24 10:28:55;;;;;;;10.18;4.12;;;;;;;10.33;53.00;101421.72;1646483;85;21814;-60
2021/10/24 10:32:26;;;;;;;8.68;4.65;;;;;;;10.35;53.39;101422.41;1645932;87;21197;-60
2021/10/24 10:35:32;;;;;;;6.70;4.55;;;;;;;10.48;53.48;101422.94;1646957;87;21750;-60
2021/10/24 10:38:50;;;;;;;12.45;5.00;;;;;;;10.55;53.18;101419.10;1669348;84;21215;-60
2021/10/24 10:41:58;;;;;;;6.78;3.08;;;;;;;10.61;52.96;101408.91;1673853;85;21785;-59
2021/10/24 10:45:28;;;;;;;10.05;3.50;;;;;;;10.70;50.86;101412.63;1673231;85;21804;-60
2021/10/24 10:48:50;;;;;;;7.00;4.12;;;;;;;10.78;50.31;101419.08;1674777;84;21375;-59
2021/10/24 10:51:58;;;;;;;8.47;4.30;;;;;;;10.83;50.44;101424.94;1662003;85;21260;-60
2021/10/24 10:55:04;;;;;;;13.03;6.95;;;;;;;10.87;50.38;101418.16;1674047;84;21252;-58
2021/10/24 10:58:52;;;;;;;8.73;5.10;;;;;;;10.88;50.28;101429.99;1648233;85;21323;-59
2021/10/24 11:01:57;;;;;;;9.75;5.20;;;;;;;10.92;49.86;101423.17;1641565;86;21224;-60
2021/10/24 11:05:06;;;;;;;7.97;4.65;;;;;;;10.94;49.84;101422.53;1636561;86;21244;-60
2021/10/24 11:08:11;;;;;;;16.82;8.45;;;;;;;10.93;50.10;101425.77;1665670;85;21284;-59
2021/10/24 11:11:18;;;;;;;13.88;7.15;;;;;;;10.94;50.33;101423.90;1659460;85;21217;-58
2021/10/24 11:14:31;;;;;;;14.33;6.00;;;;;;;10.87;51.09;101430.98;1673156;84;21232;-59
2021/10/24 11:17:49;;;;;;;9.48;4.47;;;;;;;10.76;51.20;101429.81;1679066;80;21232;-58
2021/10/24 11:20:55;;;;;;;9.00;3.75;;;;;;;10.68;51.28;101430.58;1688725;85;21701;-58
2021/10/24 11:24:04;;;;;;;7.08;4.58;;;;;;;10.61;51.62;101432.72;1689311;83;21303;-59
2021/10/24 11:27:09;;;;;;;9.60;5.33;;;;;;;10.52;51.97;101427.13;1689007;85;21422;-59
2021/10/24 11:30:17;;;;;;;7.95;4.45;;;;;;;10.45;52.64;101431.46;1687653;85;21217;-59
2021/10/24 11:33:24;;;;;;;5.65;3.85;;;;;;;10.41;53.10;101438.75;1687454;83;21797;-58
2021/10/24 11:36:36;;;;;;;8.10;4.50;;;;;;;10.38;52.63;101439.93;1688153;85;21200;-58
2021/10/24 11:39:41;;;;;;;8.15;3.77;;;;;;;10.34;52.66;101437.12;1688758;83;21772;-58
2021/10/24 11:42:47;;;;;;;5.05;3.67;;;;;;;10.36;52.60;101433.73;1689349;83;21386;-58
2021/10/24 11:45:59;;;;;;;6.83;3.90;;;;;;;10.39;51.75;101433.43;1690134;85;21351;-58
2021/10/24 11:49:10;;;;;;;9.65;5.75;;;;;;;10.43;50.84;101429.37;1689588;83;21899;-61
2021/10/24 11:52:15;;;;;;;11.73;5.97;;;;;;;10.46;50.11;101426.33;1689272;85;21201;-60
2021/10/24 11:55:21;;;;;;;8.83;5.28;;;;;;;10.49;48.95;101426.06;1688858;85;21282;-60
2021/10/24 12:01:48;;;;;;;10.55;5.42;;;;;;;10.44;49.97;101439.33;1660350;86;21220;-60
2021/10/24 12:04:53;;;;;;;9.45;4.92;;;;;;;10.36;50.54;101450.16;1660865;85;21255;-59
2021/10/24 12:08:00;;;;;;;9.93;5.12;;;;;;;10.26;51.67;101449.31;1661186;85;21232;-60
2021/10/24 12:11:07;;;;;;;10.53;5.95;;;;;;;10.22;52.85;101458.84;1661496;86;21274;-60
2021/10/24 12:14:16;;;;;;;22.80;13.35;;;;;;;10.23;53.52;101452.84;1687508;83;21323;-59
2021/10/24 12:17:40;;;;;;;13.38;6.55;;;;;;;10.27;53.82;101453.79;1688335;83;21288;-60
2021/10/24 12:20:49;;;;;;;15.10;6.55;;;;;;;10.29;53.76;101450.37;1687263;83;21697;-60
2021/10/24 12:23:56;;;;;;;11.53;6.50;;;;;;;10.32;53.89;101452.81;1671232;85;21243;-60
2021/10/24 12:27:17;;;;;;;13.75;7.55;;;;;;;10.36;53.81;101444.68;1690653;85;21701;-59
2021/10/24 12:30:31;;;;;;;16.35;6.67;;;;;;;10.39;53.75;101458.06;1690563;85;21232;-59
2021/10/24 12:33:47;;;;;;;7.67;4.67;;;;;;;10.39;53.63;101462.17;1691426;84;21587;-60
2021/10/24 12:36:52;;;;;;;12.53;6.17;;;;;;;10.36;53.44;101452.89;1674183;85;21738;-60
2021/10/24 12:40:22;;;;;;;20.80;9.60;;;;;;;10.34;53.34;101467.72;1690160;85;21563;-59
2021/10/24 12:43:28;;;;;;;35.75;19.40;;;;;;;10.32;53.22;101480.19;1690177;84;21201;-59
2021/10/24 12:46:38;;;;;;;11.93;7.92;;;;;;;10.25;53.21;101464.02;1690234;84;21211;-60
2021/10/24 12:49:42;;;;;;;16.15;10.00;;;;;;;10.24;53.31;101473.74;1690228;85;21272;-59
2021/10/24 12:52:47;;;;;;;8.45;5.70;;;;;;;10.21;53.54;101467.20;1691033;85;21244;-60
2021/10/24 12:56:13;;;;;;;7.20;4.22;;;;;;;10.18;53.77;101468.86;1692048;85;21227;-59
2021/10/24 12:59:18;;;;;;;8.70;5.33;;;;;;;10.19;53.77;101471.45;1691423;85;21239;-59
2021/10/24 13:02:23;;;;;;;9.48;5.30;;;;;;;10.24;53.82;101476.48;1691412;85;21279;-59
2021/10/24 13:05:31;;;;;;;27.75;14.05;;;;;;;10.30;53.80;101476.76;1691823;85;21207;-60
2021/10/24 13:08:36;;;;;;;18.60;10.85;;;;;;;10.33;53.52;101483.30;1692317;85;21247;-59
2021/10/24 13:11:43;;;;;;;14.68;7.95;;;;;;;10.28;53.52;101477.40;1692443;83;21240;-59
2021/10/24 13:14:49;;;;;;;15.00;7.15;;;;;;;10.21;53.32;101481.72;1691190;83;21272;-60
2021/10/24 13:17:55;;;;;;;45.70;20.97;;;;;;;10.11;53.20;101479.53;1692061;83;21394;-60
2021/10/24 13:21:05;;;;;;;49.77;22.82;;;;;;;10.02;53.34;101484.45;1692903;80;21255;-60
2021/10/24 13:24:18;;;;;;;70.62;30.97;;;;;;;9.93;53.29;101490.80;1692070;83;21255;-60
2021/10/24 13:27:23;;;;;;;49.53;23.32;;;;;;;9.84;53.49;101505.35;1692347;85;21203;-59
2021/10/24 13:30:33;;;;;;;37.88;19.40;;;;;;;9.76;53.67;101505.70;1692361;85;21240;-60
2021/10/24 13:33:39;;;;;;;20.32;10.18;;;;;;;9.70;53.82;101495.34;1692480;83;21270;-58
2021/10/24 13:36:45;;;;;;;9.13;4.70;;;;;;;9.67;53.89;101512.03;1691946;85;21298;-59
2021/10/24 13:39:50;;;;;;;21.05;9.73;;;;;;;9.63;53.99;101510.57;1691888;83;21231;-60
2021/10/24 13:42:56;;;;;;;16.00;7.45;;;;;;;9.56;54.17;101510.27;1691805;83;21228;-60
2021/10/24 13:46:02;;;;;;;6.45;4.20;;;;;;;9.51;54.34;101506.25;1691832;85;21271;-60
2021/10/24 13:49:08;;;;;;;9.73;4.28;;;;;;;9.46;54.55;101517.61;1691934;83;21236;-60
2021/10/24 13:52:16;;;;;;;6.87;3.60;;;;;;;9.41;54.79;101517.17;1690611;85;21721;-59
2021/10/24 13:55:23;;;;;;;8.73;3.75;;;;;;;9.38;55.15;101522.05;1691824;85;21276;-59
2021/10/24 13:58:30;;;;;;;6.97;4.12;;;;;;;9.35;55.36;101532.77;1692215;85;21228;-60
2021/10/24 14:01:37;;;;;;;8.70;4.85;;;;;;;9.32;55.53;101524.85;1692233;85;21203;-60
2021/10/24 14:04:43;;;;;;;12.50;5.35;;;;;;;9.30;55.75;101543.73;1692262;85;21231;-60
2021/10/24 14:07:50;;;;;;;12.47;5.67;;;;;;;9.28;55.95;101534.80;1691904;85;21231;-59
2021/10/24 14:10:57;;;;;;;11.18;5.80;;;;;;;9.26;56.15;101540.94;1691723;85;21291;-61
2021/10/24 14:14:03;;;;;;;13.53;8.50;;;;;;;9.26;56.43;101545.03;1691526;85;21216;-60
2021/10/24 14:17:09;;;;;;;14.40;7.12;;;;;;;9.24;56.57;101556.59;1691544;85;21223;-60
2021/10/24 14:20:16;;;;;;;13.75;6.30;;;;;;;9.20;56.66;101557.37;1691884;85;21808;-60
2021/10/24 14:23:22;;;;;;;10.93;5.60;;;;;;;9.17;56.80;101552.19;1692053;85;21244;-60
2021/10/24 14:26:31;;;;;;;14.87;6.83;;;;;;;9.15;56.75;101553.34;1692038;83;21208;-59
2021/10/24 14:29:38;;;;;;;9.63;5.53;;;;;;;9.11;56.82;101560.94;1691664;83;21259;-59
2021/10/24 14:32:44;;;;;;;15.15;7.72;;;;;;;9.08;56.68;101570.25;1692609;84;21276;-60
2021/10/24 14:35:49;;;;;;;26.75;12.93;;;;;;;9.05;56.67;101566.44;1692481;84;21283;-59